首页
METAR-TAF:

METAR-TAF

机场 :

Cerklje ob Krki, 斯洛文尼亚

纬度: 45-53-59N, 经度: 15-30-55E, 海拔: 157米

当前天气观测

该预报发布于25分钟前的05:00 UTC
风速1节,风向南转南东
温度 19°C
湿度 88%
气压 1019 hPa
能见度10公里或以上
1500米以下无云,无积雨云

METAR: LJCE 170500Z 16001KT CAVOK 19/17 Q1019

时间: 07:25 (05:25 UTC)

预报

该预报发布于3小时和25分钟前的02:00 UTC
预报有效从17日的 03点(UTC)到 17日的 12点(UTC)
风速5节,风向西
能见度10公里或以上
少量云层高于3000英尺
多云层高于7000英尺
短暂存在
从 17日的 03点(UTC)到 17日的 09点(UTC)
多云层高于4500英尺
成为
从 17日的 07点(UTC)到 17日的 09点(UTC)
风速5节,风向
短暂存在
从 17日的 09点(UTC)到 17日的 12点(UTC)
风速10节,风向
短暂存在
从 17日的 10点(UTC)到 17日的 12点(UTC)
散云层高于3000英尺, 塔状积云.
多云层高于5000英尺
阵雨

TAF: LJCE 170200Z 1703/1712 26005KT 9999 FEW030 BKN070 TEMPO 1703/1709 BKN045 BECMG 1707/1709 08005KT TEMPO 1709/1712 08010KT TEMPO 1710/1712 SHRA SCT030TCU BKN050

超过4000个机场的气象观测和天气预报(METAR&TAF报告)。

可查询的气象台以黄色和红色小点在地图上表示。

将鼠标移到小点上方,可查看气象台名称。

然后点击查看天气观测和预报。

如需切换地图:点击带黑十字的绿色按钮放大地图;点击带横线的绿色按钮缩小地图;或者点击绿色箭头查看邻近地区的地图。


METAR-TAF: